MST,Max TemperatureF,Mean TemperatureF,Min TemperatureF,Max Dew PointF,MeanDew PointF,Min DewpointF,Max Humidity, Mean Humidity, Min Humidity, Max Sea Level PressureIn, Mean Sea Level PressureIn, Min Sea Level PressureIn, Max VisibilityMiles, Mean VisibilityMiles, Min VisibilityMiles, Max Wind SpeedMPH, Mean Wind SpeedMPH, Max Gust SpeedMPH,PrecipitationIn, CloudCover, Events, WindDirDegrees
2013-3-1,71,47,23,13,9,3,42,26,10,30.34,30.27,30.17,10,10,10,13,6,15,0.00,0,,346
2013-3-2,77,51,25,19,11,4,55,31,6,30.40,30.22,30.11,10,10,10,10,3,13,0.00,0,,47
2013-3-3,82,56,30,17,8,-4,43,24,4,30.15,30.00,29.88,10,10,10,28,7,36,0.00,0,,289
2013-3-4,75,61,46,29,19,0,39,23,7,30.01,29.87,29.77,10,10,10,29,13,43,0.00,2,,262
2013-3-5,73,54,34,27,22,15,56,34,12,30.16,30.04,29.95,10,10,10,21,7,31,0.00,0,,153
2013-3-6,80,63,46,27,20,14,37,24,11,30.11,29.91,29.83,10,10,10,25,8,35,0.00,0,,164
2013-3-7,75,57,39,27,23,17,51,32,12,30.01,29.89,29.83,10,10,10,23,8,29,0.00,1,,196
2013-3-8,63,53,42,46,36,24,89,61,32,29.98,29.83,29.72,10,10,10,39,15,47,0.02,6,Rain,206
2013-3-9,53,44,34,34,29,24,82,61,39,30.04,29.96,29.87,10,10,10,30,8,36,T,3,Rain,307
2013-3-10,59,45,31,34,27,17,89,57,24,30.18,30.06,29.99,10,10,10,17,9,23,0.00,2,,355
2013-3-11,69,47,25,26,19,9,75,42,9,30.17,30.07,29.98,10,10,10,14,5,15,0.00,0,,354
2013-3-12,77,53,29,24,19,13,63,36,9,30.09,30.03,29.97,10,10,10,13,5,18,0.00,0,,17
2013-3-13,81,58,35,21,14,10,38,23,7,30.15,30.07,30.01,10,10,10,14,6,17,0.00,0,,15
2013-3-14,85,60,35,19,10,0,37,21,4,30.15,30.05,29.99,10,10,10,14,6,20,0.00,0,,37
2013-3-15,88,62,35,18,9,2,29,17,4,30.07,29.96,29.86,10,10,10,24,7,30,0.00,0,,318
2013-3-16,85,62,38,18,12,6,33,19,5,29.90,29.81,29.73,10,10,10,29,9,38,0.00,0,,251
2013-3-17,80,62,43,21,16,11,28,18,8,29.88,29.81,29.75,10,10,10,28,11,35,0.00,0,,240
2013-3-18,78,61,44,32,21,14,45,27,9,29.98,29.91,29.84,10,10,10,21,7,28,0.00,0,,195
2013-3-19,78,61,43,26,21,17,34,22,10,30.00,29.93,29.87,10,10,10,23,9,28,0.00,0,,325
2013-3-20,82,61,39,24,21,17,41,25,9,30.05,29.93,29.82,10,10,10,22,6,29,0.00,0,,344
2013-3-21,78,61,43,27,19,10,40,24,8,29.79,29.73,29.65,10,10,10,25,8,32,0.00,0,,319
2013-3-22,78,67,55,30,24,15,33,22,10,29.88,29.69,29.60,10,10,10,32,15,44,0.00,0,,223
2013-3-23,74,58,41,29,17,4,49,28,6,29.93,29.84,29.75,10,10,10,29,12,38,0.00,0,,279
2013-3-24,74,55,35,9,6,1,27,17,7,29.99,29.89,29.77,10,10,10,24,7,35,0.00,0,,328
2013-3-25,74,54,34,11,8,2,26,17,8,29.98,29.92,29.86,10,10,10,15,6,24,0.00,0,,20
2013-3-26,80,57,34,11,8,4,26,17,7,30.00,29.91,29.81,10,10,10,21,6,26,0.00,0,,238
2013-3-27,79,61,43,23,15,5,28,18,7,30.06,29.91,29.86,10,10,10,25,8,30,0.00,0,,186
2013-3-28,79,61,42,30,20,13,39,24,8,30.02,29.97,29.91,10,10,10,18,6,24,0.00,0,,244
2013-3-29,82,62,42,25,18,14,28,19,9,30.08,29.99,29.91,10,10,10,17,6,22,0.00,0,,309
2013-3-30,79,62,44,22,17,14,31,20,9,30.06,29.96,29.89,10,10,10,24,7,30,0.00,1,,316
2013-3-31,82,62,41,24,20,17,37,24,10,30.06,29.94,29.85,10,10,10,20,7,30,0.00,0,,318